Time;durP1;ratioP1;P1;durP2;ratioP2;P2;SDS_P1;SDS_P2;PMS_P1;PMS_P2;Temp;Humidity;BMP_temperature;BMP_pressure;BME280_temperature;BME280_humidity;BME280_pressure;Samples;Min_cycle;Max_cycle;Signal;HPM_P1;HPM_P2
2021/04/04 00:02:18;;;;;;;1.38;0.60;;;;;;;;;;5073525;28;20455;-18
2021/04/04 00:04:43;;;;;;;1.67;1.20;;;;;;;;;;5073637;28;20060;-18
2021/04/04 00:07:09;;;;;;;1.35;0.60;;;;;;;;;;5072294;28;20661;-17
2021/04/04 00:09:34;;;;;;;1.05;0.60;;;;;;;;;;5071926;28;20436;-17
2021/04/04 00:11:59;;;;;;;0.85;0.60;;;;;;;;;;5073310;28;20032;-17
2021/04/04 00:14:25;;;;;;;1.67;0.73;;;;;;;;;;5073163;28;20352;-17
2021/04/04 00:16:50;;;;;;;1.35;0.50;;;;;;;;;;5071642;28;20036;-17
2021/04/04 00:19:15;;;;;;;3.83;0.77;;;;;;;;;;5073010;28;20035;-18
2021/04/04 00:21:41;;;;;;;1.23;0.63;;;;;;;;;;5073273;28;20064;-17
2021/04/04 00:24:07;;;;;;;0.50;0.40;;;;;;;;;;5072794;28;20105;-17
2021/04/04 00:26:33;;;;;;;0.85;0.40;;;;;;;;;;5071589;28;20060;-17
2021/04/04 00:28:58;;;;;;;0.65;0.40;;;;;;;;;;5072919;28;20032;-17
2021/04/04 00:31:23;;;;;;;0.50;0.38;;;;;;;;;;5072685;28;20082;-17
2021/04/04 00:33:49;;;;;;;0.80;0.40;;;;;;;;;;5072693;28;20099;-17
2021/04/04 00:36:14;;;;;;;1.20;0.50;;;;;;;;;;5073000;28;20099;-17
2021/04/04 00:38:39;;;;;;;1.27;0.47;;;;;;;;;;5071274;28;20082;-17
2021/04/04 00:41:05;;;;;;;1.17;0.60;;;;;;;;;;5072834;28;20032;-18
2021/04/04 00:43:30;;;;;;;0.70;0.52;;;;;;;;;;5072841;28;20371;-18
2021/04/04 00:45:56;;;;;;;0.60;0.50;;;;;;;;;;5072339;28;20073;-18
2021/04/04 00:48:22;;;;;;;0.40;0.40;;;;;;;;;;5072583;28;20064;-18
2021/04/04 00:50:47;;;;;;;1.42;0.65;;;;;;;;;;5072380;28;20059;-18
2021/04/04 00:53:13;;;;;;;0.75;0.57;;;;;;;;;;5071154;28;20024;-18
2021/04/04 00:55:38;;;;;;;0.47;0.35;;;;;;;;;;5072412;28;20035;-18
2021/04/04 00:58:04;;;;;;;1.92;0.45;;;;;;;;;;5072591;28;20031;-18
2021/04/04 01:00:30;;;;;;;0.28;0.28;;;;;;;;;;5072395;28;20031;-17
2021/04/04 01:02:56;;;;;;;0.30;0.30;;;;;;;;;;5070989;28;20024;-18
2021/04/04 01:05:25;;;;;;;0.73;0.45;;;;;;;;;;5072580;28;20433;-18
2021/04/04 01:07:56;;;;;;;1.05;0.45;;;;;;;;;;5072334;28;20107;-17
2021/04/04 01:10:22;;;;;;;0.57;0.40;;;;;;;;;;5072350;28;20017;-17
2021/04/04 01:13:06;;;;;;;0.80;0.77;;;;;;;;;;5070910;28;20067;-17
2021/04/04 01:15:36;;;;;;;0.85;0.57;;;;;;;;;;5072120;28;20033;-18
2021/04/04 01:18:21;;;;;;;2.10;0.50;;;;;;;;;;5071999;28;20090;-18
2021/04/04 01:20:48;;;;;;;0.93;0.40;;;;;;;;;;5072171;28;20036;-18
2021/04/04 01:23:17;;;;;;;1.55;0.40;;;;;;;;;;5072443;28;20021;-18
2021/04/04 01:25:58;;;;;;;1.42;0.52;;;;;;;;;;5070727;28;20035;-18
2021/04/04 01:28:25;;;;;;;0.75;0.30;;;;;;;;;;5071970;28;20052;-17
2021/04/04 01:30:51;;;;;;;1.10;0.65;;;;;;;;;;5072024;28;20029;-17
2021/04/04 01:33:18;;;;;;;0.88;0.55;;;;;;;;;;5072413;28;20029;-18
2021/04/04 01:35:45;;;;;;;5.07;0.65;;;;;;;;;;5071990;28;20017;-18
2021/04/04 01:38:13;;;;;;;0.80;0.40;;;;;;;;;;5072216;28;20052;-18
2021/04/04 01:40:39;;;;;;;0.80;0.65;;;;;;;;;;5072026;28;20040;-18
2021/04/04 01:43:06;;;;;;;0.60;0.43;;;;;;;;;;5072088;28;20032;-17
2021/04/04 01:45:31;;;;;;;1.13;0.60;;;;;;;;;;5071933;28;20031;-18
2021/04/04 01:47:58;;;;;;;0.98;0.55;;;;;;;;;;5072063;28;20036;-18
2021/04/04 01:50:24;;;;;;;0.85;0.47;;;;;;;;;;5071946;28;20017;-18
2021/04/04 01:52:50;;;;;;;0.70;0.63;;;;;;;;;;5072022;28;20082;-18
2021/04/04 01:55:16;;;;;;;0.43;0.40;;;;;;;;;;5071832;28;20017;-17
2021/04/04 01:57:42;;;;;;;0.80;0.45;;;;;;;;;;5071712;28;20032;-17
2021/04/04 02:00:09;;;;;;;3.63;0.50;;;;;;;;;;5071790;28;20016;-17
2021/04/04 02:02:37;;;;;;;0.60;0.60;;;;;;;;;;5071791;28;20052;-19
2021/04/04 02:05:04;;;;;;;1.15;0.68;;;;;;;;;;5071832;28;20375;-18
2021/04/04 02:07:30;;;;;;;0.65;0.50;;;;;;;;;;5071647;28;20036;-18
2021/04/04 02:09:55;;;;;;;0.47;0.40;;;;;;;;;;5071532;28;20023;-18
2021/04/04 02:12:21;;;;;;;1.67;0.70;;;;;;;;;;5071802;28;20111;-18
2021/04/04 02:14:47;;;;;;;0.88;0.65;;;;;;;;;;5071666;28;20085;-18
2021/04/04 02:17:13;;;;;;;1.30;0.88;;;;;;;;;;5071640;28;20025;-18
2021/04/04 02:19:38;;;;;;;1.55;0.55;;;;;;;;;;5071911;28;20154;-19
2021/04/04 02:22:04;;;;;;;0.77;0.55;;;;;;;;;;5071840;28;20044;-18
2021/04/04 02:24:30;;;;;;;1.98;0.60;;;;;;;;;;5071531;28;20020;-18
2021/04/04 02:26:56;;;;;;;2.47;0.60;;;;;;;;;;5071355;28;20132;-18
2021/04/04 02:29:22;;;;;;;0.50;0.30;;;;;;;;;;5071555;28;20123;-18
2021/04/04 02:31:56;;;;;;;0.55;0.40;;;;;;;;;;5074663;28;20107;-18
2021/04/04 02:34:23;;;;;;;1.40;0.63;;;;;;;;;;5075321;28;20090;-18
2021/04/04 02:36:49;;;;;;;0.90;0.57;;;;;;;;;;5074914;28;20020;-18
2021/04/04 02:39:26;;;;;;;1.33;0.80;;;;;;;;;;5073660;28;20383;-19
2021/04/04 02:41:53;;;;;;;2.20;0.88;;;;;;;;;;5073634;28;20025;-18
2021/04/04 02:44:18;;;;;;;0.80;0.60;;;;;;;;;;5075157;28;20028;-18
2021/04/04 02:46:48;;;;;;;0.73;0.50;;;;;;;;;;5073550;28;20539;-18
2021/04/04 02:49:15;;;;;;;1.73;0.75;;;;;;;;;;5075011;28;20051;-18
2021/04/04 02:51:42;;;;;;;1.38;0.70;;;;;;;;;;5074743;28;20021;-18
2021/04/04 02:54:08;;;;;;;1.52;0.70;;;;;;;;;;5073586;28;20024;-18
2021/04/04 02:56:42;;;;;;;1.48;0.60;;;;;;;;;;5074656;28;20056;-18
2021/04/04 02:59:14;;;;;;;3.90;0.68;;;;;;;;;;5073552;28;20028;-18
2021/04/04 03:01:40;;;;;;;2.83;0.70;;;;;;;;;;5074572;28;20036;-18
2021/04/04 03:04:06;;;;;;;1.30;0.77;;;;;;;;;;5074388;28;20017;-18
2021/04/04 03:06:32;;;;;;;0.60;0.60;;;;;;;;;;5074677;28;20165;-18
2021/04/04 03:08:58;;;;;;;1.95;0.88;;;;;;;;;;5074188;28;20040;-18
2021/04/04 03:11:24;;;;;;;2.05;0.70;;;;;;;;;;5074656;28;20097;-18
2021/04/04 03:13:50;;;;;;;1.17;0.50;;;;;;;;;;5074254;28;20430;-18
2021/04/04 03:16:17;;;;;;;1.17;0.73;;;;;;;;;;5074258;28;20025;-18
2021/04/04 03:18:43;;;;;;;0.60;0.50;;;;;;;;;;5074468;28;20093;-18
2021/04/04 03:21:09;;;;;;;0.90;0.70;;;;;;;;;;5074083;28;20031;-18
2021/04/04 03:23:34;;;;;;;2.00;0.70;;;;;;;;;;5072929;28;20021;-18
2021/04/04 03:26:00;;;;;;;4.78;2.20;;;;;;;;;;5073826;28;20141;-18
2021/04/04 03:28:26;;;;;;;1.83;1.05;;;;;;;;;;5074176;28;20067;-18
2021/04/04 03:30:52;;;;;;;1.45;0.82;;;;;;;;;;5073902;28;20099;-18
2021/04/04 03:33:19;;;;;;;1.70;0.70;;;;;;;;;;5074236;28;20099;-18
2021/04/04 03:35:46;;;;;;;1.30;0.85;;;;;;;;;;5074095;28;20356;-18
2021/04/04 03:38:12;;;;;;;4.22;0.80;;;;;;;;;;5073858;28;20061;-18
2021/04/04 03:40:37;;;;;;;2.83;0.85;;;;;;;;;;5073748;28;20024;-19
2021/04/04 03:43:05;;;;;;;1.38;0.90;;;;;;;;;;5072681;28;20027;-19
2021/04/04 03:45:31;;;;;;;1.13;0.80;;;;;;;;;;5073689;28;20029;-18
2021/04/04 03:47:57;;;;;;;1.05;0.68;;;;;;;;;;5073497;28;20043;-18
2021/04/04 03:50:23;;;;;;;2.25;0.80;;;;;;;;;;5073601;28;20031;-18
2021/04/04 03:52:49;;;;;;;5.22;1.00;;;;;;;;;;5073424;28;20071;-18
2021/04/04 03:55:18;;;;;;;1.10;1.00;;;;;;;;;;5073480;28;20463;-18
2021/04/04 03:57:44;;;;;;;1.13;0.80;;;;;;;;;;5073351;28;20036;-18
2021/04/04 04:00:10;;;;;;;1.42;0.90;;;;;;;;;;5073587;28;20021;-19
2021/04/04 04:02:38;;;;;;;1.20;0.90;;;;;;;;;;5073440;28;20486;-18
2021/04/04 04:05:05;;;;;;;1.50;1.00;;;;;;;;;;5073324;28;20037;-18
2021/04/04 04:07:31;;;;;;;1.63;0.82;;;;;;;;;;5073216;28;20021;-18
2021/04/04 04:09:57;;;;;;;1.27;0.88;;;;;;;;;;5073386;28;20055;-18
2021/04/04 04:12:23;;;;;;;1.33;0.73;;;;;;;;;;5073385;28;20016;-18
2021/04/04 04:14:48;;;;;;;2.05;0.88;;;;;;;;;;5073146;28;20036;-18
2021/04/04 04:17:13;;;;;;;1.77;0.90;;;;;;;;;;5072944;28;20524;-18
2021/04/04 04:19:39;;;;;;;6.13;0.85;;;;;;;;;;5072927;28;20032;-18
2021/04/04 04:22:05;;;;;;;1.58;0.60;;;;;;;;;;5073071;28;20017;-19
2021/04/04 04:24:31;;;;;;;2.78;1.25;;;;;;;;;;5071578;28;20395;-18
2021/04/04 04:26:56;;;;;;;1.92;0.70;;;;;;;;;;5072582;28;20456;-18
2021/04/04 04:29:22;;;;;;;2.10;0.68;;;;;;;;;;5071509;28;20041;-18
2021/04/04 04:31:51;;;;;;;1.23;1.13;;;;;;;;;;5072788;28;20024;-19
2021/04/04 04:34:17;;;;;;;0.95;0.73;;;;;;;;;;5071433;28;20364;-18
2021/04/04 04:36:43;;;;;;;1.88;0.77;;;;;;;;;;5072969;28;20012;-18
2021/04/04 04:39:10;;;;;;;1.83;1.08;;;;;;;;;;5072685;28;20081;-18
2021/04/04 04:41:39;;;;;;;0.93;0.63;;;;;;;;;;5071414;28;20059;-18
2021/04/04 04:44:05;;;;;;;1.17;0.85;;;;;;;;;;5072786;28;20070;-18
2021/04/04 04:46:31;;;;;;;1.13;0.65;;;;;;;;;;5072575;28;20363;-18
2021/04/04 04:48:57;;;;;;;1.40;0.90;;;;;;;;;;5072458;28;20498;-18
2021/04/04 04:51:23;;;;;;;0.68;0.68;;;;;;;;;;5072621;28;20093;-18
2021/04/04 04:53:49;;;;;;;1.58;0.80;;;;;;;;;;5072309;28;20028;-19
2021/04/04 04:56:15;;;;;;;1.60;0.98;;;;;;;;;;5072342;28;20374;-18
2021/04/04 04:58:41;;;;;;;1.40;0.60;;;;;;;;;;5072513;28;20034;-18
2021/04/04 05:01:07;;;;;;;2.35;1.08;;;;;;;;;;5072545;28;20021;-18
2021/04/04 05:03:33;;;;;;;2.30;0.88;;;;;;;;;;5072591;28;20056;-18
2021/04/04 05:06:01;;;;;;;4.75;1.40;;;;;;;;;;5072216;28;20454;-18
2021/04/04 05:08:28;;;;;;;1.95;1.27;;;;;;;;;;5072218;28;20040;-18
2021/04/04 05:10:54;;;;;;;1.60;0.70;;;;;;;;;;5072555;28;20023;-18
2021/04/04 05:13:19;;;;;;;1.63;0.73;;;;;;;;;;5072409;28;20026;-18
2021/04/04 05:15:46;;;;;;;1.20;0.70;;;;;;;;;;5072479;28;20378;-18
2021/04/04 05:18:12;;;;;;;2.80;1.25;;;;;;;;;;5072433;28;20399;-18
2021/04/04 05:20:37;;;;;;;1.45;0.80;;;;;;;;;;5070928;28;20020;-18
2021/04/04 05:23:03;;;;;;;2.53;0.80;;;;;;;;;;5072096;28;20025;-18
2021/04/04 05:25:29;;;;;;;2.30;0.52;;;;;;;;;;5072106;28;20017;-18
2021/04/04 05:27:57;;;;;;;4.97;1.00;;;;;;;;;;5071811;28;20057;-18
2021/04/04 05:30:24;;;;;;;2.85;1.25;;;;;;;;;;5072140;28;20021;-18
2021/04/04 05:32:50;;;;;;;0.68;0.60;;;;;;;;;;5070736;28;20024;-17
2021/04/04 05:35:23;;;;;;;2.47;0.82;;;;;;;;;;5072106;28;20503;-17
2021/04/04 05:37:52;;;;;;;0.45;0.45;;;;;;;;;;5072005;28;20082;-18
2021/04/04 05:40:26;;;;;;;3.33;1.00;;;;;;;;;;5072394;28;20052;-18
2021/04/04 05:42:53;;;;;;;1.80;0.88;;;;;;;;;;5071985;28;20029;-18
2021/04/04 05:45:28;;;;;;;3.40;1.33;;;;;;;;;;5071808;28;20422;-18
2021/04/04 05:48:06;;;;;;;2.13;0.82;;;;;;;;;;5071809;28;20047;-18
2021/04/04 05:50:46;;;;;;;1.13;1.02;;;;;;;;;;5072228;28;20082;-18
2021/04/04 05:53:30;;;;;;;1.52;0.75;;;;;;;;;;5071796;28;20562;-18
2021/04/04 05:55:56;;;;;;;5.13;1.02;;;;;;;;;;5071705;28;20031;-18
2021/04/04 05:58:25;;;;;;;1.33;1.10;;;;;;;;;;5071772;28;20035;-18
2021/04/04 06:00:53;;;;;;;2.65;1.45;;;;;;;;;;5071771;28;20108;-18
2021/04/04 06:03:25;;;;;;;2.28;1.00;;;;;;;;;;5071826;28;20099;-18
2021/04/04 06:06:09;;;;;;;2.10;1.55;;;;;;;;;;5073574;28;20437;-18
2021/04/04 06:08:34;;;;;;;2.40;1.30;;;;;;;;;;5075355;28;20051;-18
2021/04/04 06:11:03;;;;;;;8.85;1.50;;;;;;;;;;5075671;28;20017;-18
2021/04/04 06:13:31;;;;;;;3.63;1.45;;;;;;;;;;5074176;28;20361;-18
2021/04/04 06:16:03;;;;;;;2.25;1.40;;;;;;;;;;5075360;28;20025;-18
2021/04/04 06:18:32;;;;;;;0.82;0.82;;;;;;;;;;5075365;28;20040;-18
2021/04/04 06:21:04;;;;;;;2.40;1.02;;;;;;;;;;5075168;28;20024;-18
2021/04/04 06:23:45;;;;;;;1.83;1.52;;;;;;;;;;5075417;28;20024;-18
2021/04/04 06:26:14;;;;;;;1.35;1.25;;;;;;;;;;5074909;28;20040;-18
2021/04/04 06:28:59;;;;;;;3.38;1.63;;;;;;;;;;5073775;28;20040;-18
2021/04/04 06:31:44;;;;;;;2.30;0.90;;;;;;;;;;5074681;28;20048;-19
2021/04/04 06:34:13;;;;;;;4.47;1.80;;;;;;;;;;5074931;28;20464;-18
2021/04/04 06:36:51;;;;;;;3.45;2.30;;;;;;;;;;5074948;28;20020;-18
2021/04/04 06:39:26;;;;;;;3.03;2.38;;;;;;;;;;5075313;28;20047;-18
2021/04/04 06:41:52;;;;;;;2.03;1.80;;;;;;;;;;5074773;28;20038;-18
2021/04/04 06:44:30;;;;;;;1.80;1.55;;;;;;;;;;5074859;28;20020;-18
2021/04/04 06:47:00;;;;;;;1.95;1.70;;;;;;;;;;5071922;28;20028;-18
2021/04/04 06:49:39;;;;;;;2.53;1.50;;;;;;;;;;5074388;28;20039;-18
2021/04/04 06:52:25;;;;;;;2.53;1.83;;;;;;;;;;4718049;28;10000522;-25
2021/04/04 06:54:59;;;;;;;2.00;1.52;;;;;;;;;;5037582;28;20273;-18
2021/04/04 06:57:43;;;;;;;2.60;1.67;;;;;;;;;;5070508;28;20021;-18
2021/04/04 07:00:11;;;;;;;3.42;1.83;;;;;;;;;;5066864;28;20024;-19
2021/04/04 07:02:43;;;;;;;6.60;1.55;;;;;;;;;;5068834;28;20024;-19
2021/04/04 07:05:11;;;;;;;1.40;1.30;;;;;;;;;;5069424;28;20012;-20
2021/04/04 07:07:43;;;;;;;1.67;0.80;;;;;;;;;;5052080;28;20082;-19
2021/04/04 07:10:08;;;;;;;4.75;1.55;;;;;;;;;;5066952;28;20032;-19
2021/04/04 07:12:34;;;;;;;3.13;1.55;;;;;;;;;;5070464;28;20371;-20
2021/04/04 07:15:06;;;;;;;8.90;2.00;;;;;;;;;;5062822;28;20483;-20
2021/04/04 07:17:34;;;;;;;2.50;1.83;;;;;;;;;;5067715;28;20483;-28
2021/04/04 07:20:09;;;;;;;5.28;1.67;;;;;;;;;;5053225;28;20309;-19
2021/04/04 07:22:53;;;;;;;2.72;1.63;;;;;;;;;;5056454;28;20149;-19
2021/04/04 07:25:19;;;;;;;2.50;1.45;;;;;;;;;;5069172;28;20098;-19
2021/04/04 07:27:50;;;;;;;2.22;1.65;;;;;;;;;;5064175;28;21662;-20
2021/04/04 07:30:35;;;;;;;2.83;2.10;;;;;;;;;;5063352;28;20074;-19
2021/04/04 07:33:20;;;;;;;3.25;1.77;;;;;;;;;;5064150;28;20513;-19
2021/04/04 07:35:48;;;;;;;2.60;1.55;;;;;;;;;;5062221;28;20028;-20
2021/04/04 07:38:19;;;;;;;3.55;1.67;;;;;;;;;;5056716;28;20075;-19
2021/04/04 07:41:03;;;;;;;1.92;1.15;;;;;;;;;;5049680;28;20511;-20
2021/04/04 07:43:45;;;;;;;2.65;1.40;;;;;;;;;;5048670;28;20029;-20
2021/04/04 07:46:11;;;;;;;4.03;2.47;;;;;;;;;;5049975;28;20032;-20
2021/04/04 07:48:42;;;;;;;4.82;1.90;;;;;;;;;;5050086;28;20033;-19
2021/04/04 07:51:08;;;;;;;2.38;1.67;;;;;;;;;;5049965;28;20056;-19
2021/04/04 07:53:44;;;;;;;2.92;1.42;;;;;;;;;;5068803;28;20027;-19
2021/04/04 07:56:28;;;;;;;6.95;2.10;;;;;;;;;;5066623;28;20036;-19
2021/04/04 07:58:53;;;;;;;3.25;1.60;;;;;;;;;;5061292;28;20487;-19
2021/04/04 08:01:28;;;;;;;2.13;1.48;;;;;;;;;;5069923;28;20085;-20
2021/04/04 08:04:06;;;;;;;2.03;0.93;;;;;;;;;;5069451;28;20027;-20
2021/04/04 08:06:35;;;;;;;2.05;1.20;;;;;;;;;;5063798;28;20021;-21
2021/04/04 08:09:20;;;;;;;3.78;1.92;;;;;;;;;;5063453;28;20037;-19
2021/04/04 08:11:51;;;;;;;2.10;1.17;;;;;;;;;;5058736;28;20036;-20
2021/04/04 08:14:20;;;;;;;1.60;1.30;;;;;;;;;;5053385;28;20031;-20
2021/04/04 08:16:58;;;;;;;3.17;1.67;;;;;;;;;;5068809;28;20026;-17
2021/04/04 08:19:25;;;;;;;3.33;1.70;;;;;;;;;;5069314;28;20042;-17
2021/04/04 08:21:53;;;;;;;2.00;1.55;;;;;;;;;;5068651;28;20407;-17
2021/04/04 08:24:27;;;;;;;3.28;1.40;;;;;;;;;;5069266;28;20052;-17
2021/04/04 08:26:59;;;;;;;1.95;0.90;;;;;;;;;;5067963;28;20059;-19
2021/04/04 08:29:40;;;;;;;3.03;1.80;;;;;;;;;;5068169;28;20036;-16
2021/04/04 08:32:08;;;;;;;2.30;1.25;;;;;;;;;;5068878;28;20521;-17
2021/04/04 08:34:52;;;;;;;3.25;1.50;;;;;;;;;;5069437;28;20051;-18
2021/04/04 08:37:22;;;;;;;6.65;0.90;;;;;;;;;;5072159;28;20032;-17
2021/04/04 08:39:53;;;;;;;1.55;1.00;;;;;;;;;;5072519;28;20078;-20
2021/04/04 08:42:18;;;;;;;1.67;0.70;;;;;;;;;;5072491;28;20557;-20
2021/04/04 08:44:46;;;;;;;1.38;0.80;;;;;;;;;;5072595;28;20020;-20
2021/04/04 08:47:11;;;;;;;2.72;0.88;;;;;;;;;;5072515;28;20423;-19
2021/04/04 08:49:37;;;;;;;1.70;0.98;;;;;;;;;;5071073;28;20067;-20
2021/04/04 08:52:03;;;;;;;2.47;0.90;;;;;;;;;;5072444;28;20116;-20
2021/04/04 08:54:29;;;;;;;2.20;1.00;;;;;;;;;;5072583;28;20024;-20
2021/04/04 08:56:56;;;;;;;5.22;1.15;;;;;;;;;;5072246;28;20090;-20
2021/04/04 08:59:23;;;;;;;1.45;0.88;;;;;;;;;;5072535;28;20020;-19
2021/04/04 09:01:51;;;;;;;2.03;1.15;;;;;;;;;;5072725;28;20052;-20
2021/04/04 09:04:17;;;;;;;2.40;1.30;;;;;;;;;;5072213;28;20016;-19
2021/04/04 09:06:44;;;;;;;1.90;1.13;;;;;;;;;;5072328;28;20028;-20
2021/04/04 09:09:13;;;;;;;2.15;0.98;;;;;;;;;;5072232;28;20475;-19
2021/04/04 09:11:39;;;;;;;1.45;0.55;;;;;;;;;;5071998;28;20379;-20
2021/04/04 09:14:05;;;;;;;3.75;1.80;;;;;;;;;;5072450;28;20017;-19
2021/04/04 09:16:33;;;;;;;1.67;1.27;;;;;;;;;;5072253;28;20025;-19
2021/04/04 09:18:58;;;;;;;1.90;1.05;;;;;;;;;;5072188;28;20096;-20
2021/04/04 09:21:24;;;;;;;2.58;1.63;;;;;;;;;;5072103;28;20040;-20
2021/04/04 09:23:53;;;;;;;1.88;0.90;;;;;;;;;;5072153;28;20108;-20
2021/04/04 09:26:23;;;;;;;6.45;1.58;;;;;;;;;;5072143;28;20044;-20
2021/04/04 09:28:49;;;;;;;2.55;1.40;;;;;;;;;;5072044;28;20480;-20
2021/04/04 09:31:18;;;;;;;1.70;1.08;;;;;;;;;;5072025;28;20082;-20
2021/04/04 09:33:48;;;;;;;1.25;1.00;;;;;;;;;;5072345;28;20020;-20
2021/04/04 09:36:14;;;;;;;3.05;1.50;;;;;;;;;;5070709;28;20036;-19
2021/04/04 09:38:40;;;;;;;1.70;1.20;;;;;;;;;;5072317;28;20024;-20
2021/04/04 09:41:07;;;;;;;2.97;1.15;;;;;;;;;;5076045;28;20032;-20
2021/04/04 09:43:50;;;;;;;1.55;1.20;;;;;;;;;;5076145;28;20069;-20
2021/04/04 09:46:16;;;;;;;2.75;0.88;;;;;;;;;;5076190;28;20029;-20
2021/04/04 09:48:41;;;;;;;1.90;1.13;;;;;;;;;;5076136;28;20375;-19
2021/04/04 09:51:08;;;;;;;1.15;0.85;;;;;;;;;;5076177;28;20025;-19
2021/04/04 09:53:44;;;;;;;2.42;1.00;;;;;;;;;;5075891;28;20105;-19
2021/04/04 09:56:13;;;;;;;1.05;0.70;;;;;;;;;;5075746;28;20025;-18
2021/04/04 09:58:42;;;;;;;1.45;0.82;;;;;;;;;;5075871;28;20048;-19
2021/04/04 10:01:14;;;;;;;2.13;0.95;;;;;;;;;;5075614;28;20035;-19
2021/04/04 10:03:39;;;;;;;1.25;0.75;;;;;;;;;;5075774;28;20021;-18
2021/04/04 10:06:12;;;;;;;2.22;0.75;;;;;;;;;;5075487;28;20012;-19
2021/04/04 10:08:37;;;;;;;0.88;0.80;;;;;;;;;;5075686;28;20044;-18
2021/04/04 10:11:13;;;;;;;1.88;1.27;;;;;;;;;;5057473;28;20016;-19
2021/04/04 10:13:39;;;;;;;2.17;1.10;;;;;;;;;;5075567;28;20024;-18
2021/04/04 10:16:16;;;;;;;3.30;0.85;;;;;;;;;;5075526;28;20026;-18
2021/04/04 10:18:58;;;;;;;0.75;0.52;;;;;;;;;;5075488;28;20020;-18
2021/04/04 10:21:24;;;;;;;1.73;0.80;;;;;;;;;;5075516;28;20398;-18
2021/04/04 10:23:50;;;;;;;1.23;0.70;;;;;;;;;;5075274;28;20020;-19
2021/04/04 10:26:18;;;;;;;1.08;0.80;;;;;;;;;;5075187;28;20058;-18
2021/04/04 10:29:04;;;;;;;4.25;0.82;;;;;;;;;;5075379;28;20078;-18
2021/04/04 10:31:46;;;;;;;6.32;1.20;;;;;;;;;;5073877;28;20024;-18
2021/04/04 10:34:12;;;;;;;2.17;1.83;;;;;;;;;;5074946;28;20072;-18
2021/04/04 10:36:38;;;;;;;2.03;0.90;;;;;;;;;;5074971;28;20051;-18
2021/04/04 10:39:18;;;;;;;1.17;0.82;;;;;;;;;;5073705;28;20025;-19
2021/04/04 10:41:43;;;;;;;2.05;0.80;;;;;;;;;;5074972;28;20639;-18
2021/04/04 10:44:19;;;;;;;7.72;1.10;;;;;;;;;;5073402;28;20089;-19
2021/04/04 10:46:45;;;;;;;1.23;0.45;;;;;;;;;;5073643;28;20032;-19
2021/04/04 10:49:10;;;;;;;3.05;0.98;;;;;;;;;;5073396;28;20037;-18
2021/04/04 10:51:35;;;;;;;5.28;1.15;;;;;;;;;;5074188;28;20063;-18
2021/04/04 10:54:01;;;;;;;0.95;0.80;;;;;;;;;;5074679;28;20021;-18
2021/04/04 10:56:29;;;;;;;1.13;0.80;;;;;;;;;;5074955;28;20032;-17
2021/04/04 10:58:54;;;;;;;0.95;0.88;;;;;;;;;;5074513;28;20039;-17
2021/04/04 11:01:20;;;;;;;1.90;0.68;;;;;;;;;;5056773;28;20020;-17
2021/04/04 11:03:46;;;;;;;1.55;0.88;;;;;;;;;;5074830;28;20487;-18
2021/04/04 11:06:12;;;;;;;1.65;0.60;;;;;;;;;;5074505;28;20025;-20
2021/04/04 11:08:40;;;;;;;1.35;0.73;;;;;;;;;;5074702;28;20437;-17
2021/04/04 11:11:06;;;;;;;3.03;0.70;;;;;;;;;;5074250;28;20023;-17
2021/04/04 11:13:34;;;;;;;0.90;0.40;;;;;;;;;;5074717;28;20025;-17
2021/04/04 11:16:00;;;;;;;2.67;0.73;;;;;;;;;;5074133;28;20021;-17
2021/04/04 11:18:33;;;;;;;1.02;0.82;;;;;;;;;;5074309;28;20017;-18
2021/04/04 11:20:58;;;;;;;;;;;;;;;;;;5074619;28;20454;-18
2021/04/04 11:23:24;;;;;;;0.80;0.47;;;;;;;;;;5072873;28;19905;-18
2021/04/04 11:25:51;;;;;;;1.70;0.60;;;;;;;;;;5073831;28;20033;-19
2021/04/04 11:28:17;;;;;;;2.67;0.88;;;;;;;;;;5074232;28;20036;-18
2021/04/04 11:30:43;;;;;;;1.50;0.70;;;;;;;;;;5074081;28;20357;-18
2021/04/04 11:33:28;;;;;;;1.17;0.60;;;;;;;;;;5073924;28;20012;-18
2021/04/04 11:35:59;;;;;;;2.25;0.90;;;;;;;;;;5073517;28;20399;-18
2021/04/04 11:38:25;;;;;;;1.05;0.60;;;;;;;;;;5073940;28;20115;-18
2021/04/04 11:41:09;;;;;;;1.25;0.52;;;;;;;;;;5073648;28;20356;-18
2021/04/04 11:43:34;;;;;;;1.63;0.70;;;;;;;;;;5073774;28;20029;-18
2021/04/04 11:46:00;;;;;;;1.40;0.77;;;;;;;;;;5073460;28;20012;-18
2021/04/04 11:48:31;;;;;;;0.68;0.50;;;;;;;;;;5073437;28;20033;-18
2021/04/04 11:51:12;;;;;;;2.28;0.82;;;;;;;;;;5073873;28;20379;-18
2021/04/04 11:53:44;;;;;;;0.73;0.47;;;;;;;;;;5073462;28;20055;-18
2021/04/04 11:56:30;;;;;;;0.98;0.60;;;;;;;;;;5073471;28;20074;-18
2021/04/04 11:58:55;;;;;;;0.45;0.35;;;;;;;;;;5073297;28;20060;-18
2021/04/04 12:01:21;;;;;;;0.63;0.50;;;;;;;;;;5073393;28;20023;-18
2021/04/04 12:03:46;;;;;;;2.20;0.75;;;;;;;;;;5072607;28;20181;-18
2021/04/04 12:06:15;;;;;;;2.95;0.80;;;;;;;;;;5073241;28;20024;-18
2021/04/04 12:08:41;;;;;;;0.85;0.57;;;;;;;;;;5073109;28;20055;-18
2021/04/04 12:11:06;;;;;;;1.85;0.75;;;;;;;;;;5073354;28;20013;-18
2021/04/04 12:13:32;;;;;;;0.80;0.40;;;;;;;;;;5073250;28;20039;-16
2021/04/04 12:16:00;;;;;;;2.13;1.02;;;;;;;;;;5072868;28;20017;-16
2021/04/04 12:18:26;;;;;;;5.10;0.60;;;;;;;;;;5072855;28;20036;-18
2021/04/04 12:20:52;;;;;;;1.15;0.80;;;;;;;;;;5073079;28;20012;-17
2021/04/04 12:23:23;;;;;;;2.35;0.75;;;;;;;;;;5110305;27;20385;-17
2021/04/04 12:25:49;;;;;;;1.98;0.70;;;;;;;;;;5110291;28;20367;-18
2021/04/04 12:28:15;;;;;;;1.33;0.52;;;;;;;;;;5109425;28;20023;-17
2021/04/04 12:30:41;;;;;;;1.20;0.52;;;;;;;;;;5110240;28;20103;-17
2021/04/04 12:33:17;;;;;;;1.80;0.50;;;;;;;;;;5110364;28;20024;-17
2021/04/04 12:35:49;;;;;;;0.70;0.70;;;;;;;;;;5110168;28;20146;-17
2021/04/04 12:38:25;;;;;;;1.70;0.70;;;;;;;;;;5109964;28;20081;-17
2021/04/04 12:40:51;;;;;;;0.73;0.47;;;;;;;;;;5110042;28;20092;-17
2021/04/04 12:43:16;;;;;;;1.48;0.60;;;;;;;;;;5110108;28;20381;-17
2021/04/04 12:45:42;;;;;;;0.90;0.57;;;;;;;;;;5109789;28;20102;-17
2021/04/04 12:48:11;;;;;;;1.38;0.60;;;;;;;;;;5109819;28;20027;-18
2021/04/04 12:50:37;;;;;;;0.65;0.60;;;;;;;;;;5110038;28;20355;-18
2021/04/04 12:53:02;;;;;;;2.67;0.80;;;;;;;;;;5109463;28;20026;-17
2021/04/04 12:55:29;;;;;;;1.38;0.80;;;;;;;;;;5109487;28;20039;-18
2021/04/04 12:57:58;;;;;;;2.75;1.15;;;;;;;;;;5109600;28;20046;-18
2021/04/04 13:00:27;;;;;;;2.75;0.47;;;;;;;;;;5109113;28;20027;-17
2021/04/04 13:02:54;;;;;;;1.05;0.85;;;;;;;;;;5109467;28;20028;-17
2021/04/04 13:05:20;;;;;;;0.82;0.50;;;;;;;;;;5108122;28;20028;-17
2021/04/04 13:07:45;;;;;;;1.13;0.30;;;;;;;;;;5109511;28;20043;-17
2021/04/04 13:10:11;;;;;;;0.90;0.70;;;;;;;;;;5109390;28;20415;-17
2021/04/04 13:12:37;;;;;;;0.80;0.68;;;;;;;;;;5109731;28;20020;-17
2021/04/04 13:15:03;;;;;;;0.43;0.22;;;;;;;;;;5109535;28;20046;-18
2021/04/04 13:17:36;;;;;;;0.82;0.50;;;;;;;;;;5109334;28;20465;-17
2021/04/04 13:20:02;;;;;;;0.32;0.30;;;;;;;;;;5109382;28;20030;-17
2021/04/04 13:22:27;;;;;;;0.80;0.50;;;;;;;;;;5109013;28;20481;-17
2021/04/04 13:24:59;;;;;;;1.02;0.45;;;;;;;;;;5109179;28;20038;-18
2021/04/04 13:27:24;;;;;;;5.88;0.45;;;;;;;;;;5109368;28;20046;-18
2021/04/04 13:29:49;;;;;;;2.70;0.55;;;;;;;;;;5109341;28;20103;-18
2021/04/04 13:32:15;;;;;;;1.75;0.40;;;;;;;;;;5109206;28;20024;-18
2021/04/04 13:34:41;;;;;;;3.50;0.82;;;;;;;;;;5096052;28;20024;-18
2021/04/04 13:37:07;;;;;;;1.05;0.57;;;;;;;;;;5095539;28;20036;-17
2021/04/04 13:39:37;;;;;;;0.55;0.55;;;;;;;;;;5095305;28;20016;-18
2021/04/04 13:42:03;;;;;;;1.73;0.75;;;;;;;;;;5095004;28;20044;-17
2021/04/04 13:44:29;;;;;;;1.38;0.63;;;;;;;;;;5095211;28;20043;-17
2021/04/04 13:46:54;;;;;;;2.95;0.65;;;;;;;;;;5095191;28;20519;-18
2021/04/04 13:49:21;;;;;;;1.40;0.65;;;;;;;;;;5093670;28;20035;-17
2021/04/04 13:51:47;;;;;;;2.38;0.65;;;;;;;;;;5095113;28;20043;-18
2021/04/04 13:54:13;;;;;;;1.05;0.70;;;;;;;;;;5095228;28;20012;-17
2021/04/04 13:56:47;;;;;;;1.42;0.90;;;;;;;;;;5094890;28;20032;-18
2021/04/04 13:59:15;;;;;;;0.60;0.50;;;;;;;;;;5094905;28;20493;-18
2021/04/04 14:01:41;;;;;;;2.00;0.85;;;;;;;;;;5095057;28;20048;-18
2021/04/04 14:04:07;;;;;;;1.10;0.65;;;;;;;;;;5094643;28;20044;-18
2021/04/04 14:06:41;;;;;;;1.23;0.68;;;;;;;;;;5095155;28;20022;-19
2021/04/04 14:09:07;;;;;;;1.67;0.73;;;;;;;;;;5093263;28;20398;-19
2021/04/04 14:11:36;;;;;;;0.90;0.40;;;;;;;;;;5095026;28;20024;-18
2021/04/04 14:14:06;;;;;;;0.40;0.40;;;;;;;;;;5093222;28;20368;-18
2021/04/04 14:16:31;;;;;;;0.50;0.50;;;;;;;;;;5093628;28;20482;-18
2021/04/04 14:18:57;;;;;;;0.17;0.10;;;;;;;;;;5094496;28;20060;-18
2021/04/04 14:21:22;;;;;;;0.70;0.55;;;;;;;;;;5094523;28;20044;-18
2021/04/04 14:23:48;;;;;;;0.57;0.55;;;;;;;;;;5094755;28;20532;-18
2021/04/04 14:26:13;;;;;;;1.02;0.63;;;;;;;;;;5094367;28;20401;-18
2021/04/04 14:28:39;;;;;;;3.80;0.60;;;;;;;;;;5093049;28;20032;-18
2021/04/04 14:31:05;;;;;;;1.10;0.63;;;;;;;;;;5094527;28;20020;-18
2021/04/04 14:33:31;;;;;;;1.25;0.80;;;;;;;;;;5093032;28;20043;-18
2021/04/04 14:35:56;;;;;;;4.15;1.10;;;;;;;;;;5094198;28;20032;-18
2021/04/04 14:38:22;;;;;;;1.20;0.70;;;;;;;;;;5094321;28;20530;-18
2021/04/04 14:40:47;;;;;;;3.67;0.70;;;;;;;;;;5093174;28;20382;-18
2021/04/04 14:45:54;;;;;;;1.05;0.68;;;;;;;;;;5093303;28;20500;-19
2021/04/04 14:48:20;;;;;;;2.88;1.23;;;;;;;;;;5094180;28;20023;-17
2021/04/04 14:50:45;;;;;;;2.25;0.70;;;;;;;;;;5094034;28;20085;-18
2021/04/04 14:53:14;;;;;;;1.63;0.65;;;;;;;;;;5093790;28;20027;-17
2021/04/04 14:55:47;;;;;;;0.93;0.60;;;;;;;;;;5093773;28;20120;-18